createdAt,value
2019-02-07T00:00:14.614Z,95780.20
2019-02-07T00:02:50.657Z,95767.66
2019-02-07T00:05:22.403Z,95765.72
2019-02-07T00:07:53.891Z,95762.59
2019-02-07T00:10:25.399Z,95756.23
2019-02-07T00:12:58.806Z,95749.06
2019-02-07T00:15:30.482Z,95752.36
2019-02-07T00:18:01.966Z,95753.56
2019-02-07T00:20:33.433Z,95750.72
2019-02-07T00:23:05.018Z,95745.31
2019-02-07T00:25:37.040Z,95734.59
2019-02-07T00:28:10.987Z,95744.46
2019-02-07T00:30:42.457Z,95732.39
2019-02-07T00:33:13.889Z,95734.89
2019-02-07T00:35:46.270Z,95745.24
2019-02-07T00:38:18.729Z,95748.23
2019-02-07T00:40:50.205Z,95746.07
2019-02-07T00:43:23.156Z,95752.85
2019-02-07T00:45:54.853Z,95748.61
2019-02-07T00:48:28.386Z,95754.30
2019-02-07T00:50:59.834Z,95748.10
2019-02-07T00:53:31.235Z,95746.67
2019-02-07T00:56:02.718Z,95743.70
2019-02-07T00:58:34.269Z,95737.22
2019-02-07T01:01:05.928Z,95731.30
2019-02-07T01:03:37.675Z,95738.12
2019-02-07T01:06:09.646Z,95741.84
2019-02-07T01:08:41.159Z,95743.70
2019-02-07T01:11:14.334Z,95740.82
2019-02-07T01:13:46.403Z,95745.02
2019-02-07T01:16:19.353Z,95743.16
2019-02-07T01:18:50.888Z,95735.07
2019-02-07T01:21:22.342Z,95732.02
2019-02-07T01:23:54.937Z,95725.17
2019-02-07T01:26:26.674Z,95722.45
2019-02-07T01:28:58.176Z,95721.95
2019-02-07T01:31:29.613Z,95717.11
2019-02-07T01:34:02.665Z,95710.23
2019-02-07T01:36:34.142Z,95701.45
2019-02-07T01:39:09.327Z,95698.18
2019-02-07T01:41:40.833Z,95686.29
2019-02-07T01:44:13.873Z,95680.48
2019-02-07T01:46:47.106Z,95675.65
2019-02-07T01:49:18.595Z,95676.27
2019-02-07T01:51:51.939Z,95667.09
2019-02-07T01:54:23.441Z,95660.11
2019-02-07T01:56:55.375Z,95664.97
2019-02-07T01:59:26.826Z,95668.91
2019-02-07T02:01:58.330Z,95661.81
2019-02-07T02:04:29.892Z,95668.64
2019-02-07T02:07:01.368Z,95660.49
2019-02-07T02:09:32.866Z,95657.62
2019-02-07T02:12:04.888Z,95642.51
2019-02-07T02:14:37.462Z,95642.52
2019-02-07T02:17:08.921Z,95639.83
2019-02-07T02:19:40.434Z,95636.48
2019-02-07T02:22:11.916Z,95636.70
2019-02-07T02:24:45.222Z,95629.80
2019-02-07T02:27:16.572Z,95616.76
2019-02-07T02:29:48.095Z,95620.42
2019-02-07T02:32:21.868Z,95625.97
2019-02-07T02:34:53.355Z,95618.42
2019-02-07T02:37:27.557Z,95619.35
2019-02-07T02:40:01.470Z,95623.69
2019-02-07T02:42:33.090Z,95611.02
2019-02-07T02:45:05.527Z,95603.02
2019-02-07T02:47:37.065Z,95599.97
2019-02-07T02:50:11.590Z,95600.95
2019-02-07T02:52:43.264Z,95601.53
2019-02-07T02:55:21.878Z,95598.90
2019-02-07T02:57:53.349Z,95608.97
2019-02-07T03:00:33.502Z,95604.58
2019-02-07T03:03:19.088Z,95592.16
2019-02-07T03:06:04.718Z,95591.17
2019-02-07T03:08:52.690Z,95590.84
2019-02-07T03:11:48.418Z,95597.08
2019-02-07T03:14:35.794Z,95594.89
2019-02-07T03:17:14.366Z,95598.88
2019-02-07T03:19:55.728Z,95591.34
2019-02-07T03:22:46.374Z,95578.72
2019-02-07T03:25:35.339Z,95564.70
2019-02-07T03:28:24.552Z,95549.47
2019-02-07T03:31:13.931Z,95544.68
2019-02-07T03:34:10.235Z,95540.72
2019-02-07T03:37:05.478Z,95538.48
2019-02-07T03:39:43.588Z,95531.66
2019-02-07T03:42:32.838Z,95527.77
2019-02-07T03:45:28.048Z,95534.47
2019-02-07T03:48:23.762Z,95535.27
2019-02-07T03:51:14.566Z,95527.30
2019-02-07T03:54:07.866Z,95524.89
2019-02-07T03:57:05.804Z,95518.99
2019-02-07T03:59:58.944Z,95519.01
2019-02-07T04:02:55.362Z,95528.11
2019-02-07T04:05:43.233Z,95530.02
2019-02-07T04:08:32.535Z,95524.45
2019-02-07T04:11:24.008Z,95522.06
2019-02-07T04:14:26.520Z,95530.78
2019-02-07T04:17:10.767Z,95517.33
2019-02-07T04:20:01.403Z,95508.05
2019-02-07T04:22:43.732Z,95512.80
2019-02-07T04:25:43.579Z,95513.47
2019-02-07T04:28:40.098Z,95507.40
2019-02-07T04:31:26.905Z,95502.16
2019-02-07T04:34:15.953Z,95494.80
2019-02-07T04:37:02.895Z,95489.31
2019-02-07T04:39:51.249Z,95483.70
2019-02-07T04:42:56.618Z,95485.57
2019-02-07T04:45:45.619Z,95484.00
2019-02-07T04:48:30.717Z,95475.16
2019-02-07T04:51:41.242Z,95478.42
2019-02-07T04:54:31.966Z,95476.83
2019-02-07T04:57:22.387Z,95468.87
2019-02-07T05:00:16.171Z,95477.42
2019-02-07T05:03:06.927Z,95482.59
2019-02-07T05:06:15.941Z,95482.50
2019-02-07T05:09:14.440Z,95480.48
2019-02-07T05:12:16.759Z,95481.56
2019-02-07T05:14:56.159Z,95472.67
2019-02-07T05:17:55.655Z,95464.67
2019-02-07T05:20:48.773Z,95471.78
2019-02-07T05:23:41.997Z,95474.93
2019-02-07T05:26:31.822Z,95472.77
2019-02-07T05:29:28.181Z,95463.64
2019-02-07T05:32:23.933Z,95455.69
2019-02-07T05:35:14.109Z,95462.62
2019-02-07T05:37:55.615Z,95466.14
2019-02-07T05:41:04.093Z,95472.67
2019-02-07T05:43:48.185Z,95468.44
2019-02-07T05:46:50.777Z,95474.92
2019-02-07T05:49:25.867Z,95475.41
2019-02-07T05:52:31.014Z,95486.98
2019-02-07T05:55:33.651Z,95480.58
2019-02-07T05:58:19.071Z,95472.63
2019-02-07T06:01:09.694Z,95467.60
2019-02-07T06:03:56.995Z,95464.55
2019-02-07T06:06:40.560Z,95464.92
2019-02-07T06:09:30.668Z,95469.57
2019-02-07T06:12:19.885Z,95462.31
2019-02-07T06:15:08.957Z,95459.25
2019-02-07T06:18:00.381Z,95460.67
2019-02-07T06:20:58.954Z,95466.23
2019-02-07T06:23:58.379Z,95468.37
2019-02-07T06:26:47.611Z,95467.45
2019-02-07T06:29:36.757Z,95466.86
2019-02-07T06:32:17.565Z,95466.05
2019-02-07T06:35:06.232Z,95461.84
2019-02-07T06:37:55.986Z,95464.34
2019-02-07T06:40:46.792Z,95467.89
2019-02-07T06:43:43.436Z,95469.44
2019-02-07T06:46:32.360Z,95478.89
2019-02-07T06:49:21.775Z,95462.31
2019-02-07T06:52:10.048Z,95468.93
2019-02-07T06:54:52.315Z,95462.95
2019-02-07T06:57:54.747Z,95474.59
2019-02-07T07:00:47.068Z,95473.66
2019-02-07T07:03:26.153Z,95473.61
2019-02-07T07:06:22.581Z,95477.36
2019-02-07T07:09:13.039Z,95479.78
2019-02-07T07:12:03.351Z,95477.39
2019-02-07T07:14:52.427Z,95484.08
2019-02-07T07:17:51.752Z,95490.81
2019-02-07T07:20:39.679Z,95482.48
2019-02-07T07:23:35.990Z,95487.06
2019-02-07T07:26:41.513Z,95488.97
2019-02-07T07:29:47.150Z,95479.70
2019-02-07T07:32:43.136Z,95489.87
2019-02-07T07:35:32.339Z,95481.67
2019-02-07T07:38:17.774Z,95478.60
2019-02-07T07:41:11.045Z,95472.66
2019-02-07T07:44:10.742Z,95478.70
2019-02-07T07:47:01.018Z,95478.12
2019-02-07T07:49:58.506Z,95472.49
2019-02-07T07:52:51.852Z,95477.52
2019-02-07T07:55:36.650Z,95473.34
2019-02-07T07:58:26.113Z,95466.75
2019-02-07T08:01:13.888Z,95472.44
2019-02-07T08:03:54.116Z,95462.31
2019-02-07T08:06:32.752Z,95470.05
2019-02-07T08:09:38.263Z,95474.42
2019-02-07T08:12:17.521Z,95460.45
2019-02-07T08:15:07.882Z,95459.88
2019-02-07T08:18:00.953Z,95453.50
2019-02-07T08:20:42.438Z,95454.95
2019-02-07T08:23:48.114Z,95453.92
2019-02-07T08:26:42.298Z,95454.12
2019-02-07T08:29:44.752Z,95450.92
2019-02-07T08:32:34.351Z,95450.64
2019-02-07T08:35:24.052Z,95455.05
2019-02-07T08:38:08.377Z,95449.95
2019-02-07T08:41:07.149Z,95453.17
2019-02-07T08:44:06.734Z,95451.42
2019-02-07T08:46:57.868Z,95454.23
2019-02-07T08:49:48.576Z,95454.55
2019-02-07T08:52:37.632Z,95441.30
2019-02-07T08:55:34.976Z,95442.95
2019-02-07T08:58:19.359Z,95441.71
2019-02-07T09:01:15.590Z,95437.41
2019-02-07T09:03:53.986Z,95435.61
2019-02-07T09:06:44.388Z,95428.79
2019-02-07T09:09:33.730Z,95420.03
2019-02-07T09:12:21.922Z,95423.08
2019-02-07T09:15:15.660Z,95421.80
2019-02-07T09:18:16.248Z,95417.59
2019-02-07T09:21:05.533Z,95413.06
2019-02-07T09:23:54.822Z,95422.34
2019-02-07T09:26:57.572Z,95413.71
2019-02-07T09:30:00.327Z,95406.72
2019-02-07T09:32:53.704Z,95402.48
2019-02-07T09:35:46.112Z,95408.70
2019-02-07T09:38:39.276Z,95398.83
2019-02-07T09:41:45.235Z,95392.80
2019-02-07T09:44:51.015Z,95393.90
2019-02-07T09:47:46.160Z,95393.39
2019-02-07T09:50:36.946Z,95379.80
2019-02-07T09:53:30.166Z,95381.26
2019-02-07T09:56:19.795Z,95381.83
2019-02-07T09:59:10.137Z,95378.20
2019-02-07T10:01:59.440Z,95381.06
2019-02-07T10:04:53.249Z,95382.11
2019-02-07T10:07:40.443Z,95386.98
2019-02-07T10:10:29.984Z,95379.30
2019-02-07T10:13:19.119Z,95383.98
2019-02-07T10:16:08.310Z,95380.00
2019-02-07T10:18:48.762Z,95373.98
2019-02-07T10:21:42.016Z,95374.67
2019-02-07T10:24:35.416Z,95369.56
2019-02-07T10:27:29.956Z,95369.98
2019-02-07T10:30:23.502Z,95367.45
2019-02-07T10:33:07.876Z,95374.25
2019-02-07T10:36:16.907Z,95365.36
2019-02-07T10:38:56.844Z,95363.81
2019-02-07T10:41:52.557Z,95358.02
2019-02-07T10:44:41.575Z,95358.50
2019-02-07T10:47:33.454Z,95351.98
2019-02-07T10:50:23.916Z,95348.16
2019-02-07T10:53:17.308Z,95341.66
2019-02-07T10:56:08.090Z,95329.16
2019-02-07T10:59:07.713Z,95331.87
2019-02-07T11:01:58.480Z,95328.41
2019-02-07T11:04:52.396Z,95321.27
2019-02-07T11:07:42.814Z,95315.20
2019-02-07T11:10:34.280Z,95307.44
2019-02-07T11:13:23.871Z,95309.47
2019-02-07T11:16:20.043Z,95302.91
2019-02-07T11:19:20.969Z,95300.48
2019-02-07T11:21:58.797Z,95288.58
2019-02-07T11:24:47.892Z,95277.89
2019-02-07T11:27:44.405Z,95272.03
2019-02-07T11:30:55.252Z,95268.05
2019-02-07T11:33:54.270Z,95264.36
2019-02-07T11:36:53.993Z,95268.50
2019-02-07T11:39:45.768Z,95262.75
2019-02-07T11:42:48.332Z,95260.73
2019-02-07T11:45:38.094Z,95259.52
2019-02-07T11:48:34.364Z,95251.28
2019-02-07T11:51:23.969Z,95264.26
2019-02-07T11:54:17.410Z,95260.70
2019-02-07T11:57:13.848Z,95258.44
2019-02-07T12:00:03.143Z,95258.48
2019-02-07T12:03:11.896Z,95248.19
2019-02-07T12:06:01.467Z,95252.29
2019-02-07T12:08:59.785Z,95251.42
2019-02-07T12:11:50.140Z,95251.03
2019-02-07T12:14:58.635Z,95250.46
2019-02-07T12:17:49.121Z,95247.83
2019-02-07T12:20:30.366Z,95254.98
2019-02-07T12:23:11.356Z,95256.00
2019-02-07T12:26:07.497Z,95255.44
2019-02-07T12:28:52.649Z,95255.45
2019-02-07T12:31:53.635Z,95255.88
2019-02-07T12:34:44.705Z,95246.55
2019-02-07T12:37:38.144Z,95246.52
2019-02-07T12:40:28.727Z,95247.64
2019-02-07T12:43:25.207Z,95244.13
2019-02-07T12:46:20.387Z,95242.15
2019-02-07T12:49:28.960Z,95248.56
2019-02-07T12:52:12.911Z,95243.60
2019-02-07T12:54:55.424Z,95244.23
2019-02-07T12:57:52.063Z,95246.53
2019-02-07T13:00:39.465Z,95238.80
2019-02-07T13:03:45.093Z,95246.93
2019-02-07T13:06:39.586Z,95245.74
2019-02-07T13:09:47.857Z,95245.02
2019-02-07T13:12:29.711Z,95243.95
2019-02-07T13:15:20.732Z,95237.03
2019-02-07T13:18:12.044Z,95235.88
2019-02-07T13:20:51.054Z,95242.38
2019-02-07T13:23:40.384Z,95239.00
2019-02-07T13:26:36.591Z,95234.98
2019-02-07T13:29:28.765Z,95234.64
2019-02-07T13:32:18.373Z,95235.59
2019-02-07T13:35:06.613Z,95230.88
2019-02-07T13:37:56.990Z,95234.64
2019-02-07T13:40:44.661Z,95232.89
2019-02-07T13:43:33.664Z,95231.97
2019-02-07T13:46:30.931Z,95232.66
2019-02-07T13:49:21.267Z,95233.61
2019-02-07T13:52:12.177Z,95235.36
2019-02-07T13:55:06.934Z,95236.56
2019-02-07T13:57:57.421Z,95234.58
2019-02-07T14:00:59.943Z,95241.39
2019-02-07T14:03:48.952Z,95248.05
2019-02-07T14:06:45.213Z,95246.89
2019-02-07T14:09:34.143Z,95248.33
2019-02-07T14:12:33.826Z,95254.67
2019-02-07T14:15:28.933Z,95263.91
2019-02-07T14:18:19.385Z,95274.94
2019-02-07T14:21:04.935Z,95268.36
2019-02-07T14:24:13.707Z,95271.95
2019-02-07T14:27:03.654Z,95275.75
2019-02-07T14:30:00.027Z,95271.77
2019-02-07T14:32:53.379Z,95272.22
2019-02-07T14:35:46.846Z,95272.72
2019-02-07T14:38:36.112Z,95284.92
2019-02-07T14:41:32.860Z,95297.16
2019-02-07T14:44:23.329Z,95295.53
2019-02-07T14:46:58.030Z,95290.70
2019-02-07T14:49:30.757Z,95297.84
2019-02-07T14:52:02.189Z,95302.66
2019-02-07T14:54:33.690Z,95305.89
2019-02-07T14:57:05.898Z,95299.63
2019-02-07T14:59:37.448Z,95304.38
2019-02-07T15:02:09.022Z,95296.52
2019-02-07T15:04:40.942Z,95303.93
2019-02-07T15:07:12.565Z,95310.64
2019-02-07T15:09:47.246Z,95315.03
2019-02-07T15:12:18.811Z,95310.89
2019-02-07T15:14:50.332Z,95307.97
2019-02-07T15:17:21.791Z,95301.02
2019-02-07T15:19:53.262Z,95305.25
2019-02-07T15:22:24.791Z,95306.70
2019-02-07T15:24:56.323Z,95309.18
2019-02-07T15:27:28.893Z,95315.36
2019-02-07T15:30:00.448Z,95302.44
2019-02-07T15:32:31.909Z,95306.61
2019-02-07T15:35:03.533Z,95305.50
2019-02-07T15:37:35.077Z,95306.13
2019-02-07T15:40:12.920Z,95299.41
2019-02-07T15:42:44.535Z,95301.42
2019-02-07T15:45:16.362Z,95298.61
2019-02-07T15:47:47.840Z,95298.88
2019-02-07T15:50:23.281Z,95304.17
2019-02-07T15:52:58.936Z,95295.78
2019-02-07T15:55:30.652Z,95307.36
2019-02-07T15:58:02.627Z,95299.78
2019-02-07T16:00:49.849Z,95299.37
2019-02-07T16:03:40.261Z,95291.05
2019-02-07T16:06:12.026Z,95300.48
2019-02-07T16:08:43.478Z,95291.05
2019-02-07T16:11:14.993Z,95294.46
2019-02-07T16:13:46.475Z,95306.58
2019-02-07T16:16:17.950Z,95309.85
2019-02-07T16:18:51.546Z,95306.02
2019-02-07T16:21:23.092Z,95313.09
2019-02-07T16:23:54.976Z,95323.47
2019-02-07T16:26:26.463Z,95325.58
2019-02-07T16:28:58.000Z,95320.84
2019-02-07T16:31:29.747Z,95317.75
2019-02-07T16:34:01.242Z,95318.42
2019-02-07T16:36:34.766Z,95317.86
2019-02-07T16:39:11.079Z,95326.28
2019-02-07T16:41:42.484Z,95325.38
2019-02-07T16:44:15.111Z,95329.95
2019-02-07T16:46:46.749Z,95329.23
2019-02-07T16:49:20.948Z,95334.54
2019-02-07T16:51:52.405Z,95332.31
2019-02-07T16:54:23.871Z,95334.39
2019-02-07T16:56:55.378Z,95345.36
2019-02-07T16:59:26.832Z,95346.48
2019-02-07T17:01:59.407Z,95356.97
2019-02-07T17:04:30.824Z,95354.30
2019-02-07T17:07:02.335Z,95355.69
2019-02-07T17:09:41.134Z,95362.07
2019-02-07T17:12:13.288Z,95363.66
2019-02-07T17:14:44.800Z,95365.44
2019-02-07T17:17:16.347Z,95367.72
2019-02-07T17:19:47.944Z,95363.02
2019-02-07T17:22:19.525Z,95365.94
2019-02-07T17:24:51.216Z,95372.56
2019-02-07T17:27:22.989Z,95378.16
2019-02-07T17:29:54.378Z,95381.59
2019-02-07T17:32:25.834Z,95383.26
2019-02-07T17:34:57.268Z,95376.33
2019-02-07T17:37:29.069Z,95384.41
2019-02-07T17:40:00.610Z,95389.20
2019-02-07T17:42:32.491Z,95390.73
2019-02-07T17:45:04.020Z,95397.92
2019-02-07T17:47:35.725Z,95396.73
2019-02-07T17:50:13.208Z,95396.97
2019-02-07T17:52:44.759Z,95400.28
2019-02-07T17:55:17.862Z,95402.02
2019-02-07T17:57:49.402Z,95403.64
2019-02-07T18:00:59.167Z,95405.59
2019-02-07T18:03:30.773Z,95400.58
2019-02-07T18:06:02.226Z,95397.95
2019-02-07T18:08:33.890Z,95393.36
2019-02-07T18:11:07.974Z,95391.27
2019-02-07T18:13:40.542Z,95398.99
2019-02-07T18:16:12.071Z,95402.22
2019-02-07T18:18:43.579Z,95400.89
2019-02-07T18:21:16.491Z,95400.19
2019-02-07T18:23:47.970Z,95401.97
2019-02-07T18:26:19.446Z,95403.26
2019-02-07T18:28:50.908Z,95407.27
2019-02-07T18:31:22.397Z,95399.65
2019-02-07T18:33:54.133Z,95410.30
2019-02-07T18:36:25.600Z,95409.65
2019-02-07T18:38:57.140Z,95404.70
2019-02-07T18:41:28.565Z,95405.00
2019-02-07T18:44:00.314Z,95402.52
2019-02-07T18:46:31.998Z,95401.63
2019-02-07T18:49:03.484Z,95402.27
2019-02-07T18:51:44.912Z,95394.83
2019-02-07T18:54:08.673Z,95394.09
2019-02-07T18:56:40.135Z,95402.12
2019-02-07T18:59:11.952Z,95403.64
2019-02-07T19:01:43.357Z,95405.03
2019-02-07T19:04:14.846Z,95402.55
2019-02-07T19:06:46.279Z,95407.36
2019-02-07T19:09:17.717Z,95408.44
2019-02-07T19:11:49.297Z,95413.27
2019-02-07T19:14:23.885Z,95414.00
2019-02-07T19:16:55.371Z,95409.95
2019-02-07T19:19:28.562Z,95410.30
2019-02-07T19:22:00.007Z,95408.71
2019-02-07T19:24:31.935Z,95412.66
2019-02-07T19:27:03.458Z,95416.13
2019-02-07T19:29:34.923Z,95418.97
2019-02-07T19:32:06.385Z,95412.22
2019-02-07T19:34:39.607Z,95417.27
2019-02-07T19:37:11.354Z,95423.06
2019-02-07T19:39:42.802Z,95420.49
2019-02-07T19:42:14.258Z,95424.50
2019-02-07T19:44:45.787Z,95428.13
2019-02-07T19:47:17.325Z,95427.87
2019-02-07T19:49:48.969Z,95430.60
2019-02-07T19:52:20.498Z,95428.13
2019-02-07T19:54:51.989Z,95427.78
2019-02-07T19:57:23.539Z,95432.39
2019-02-07T19:59:55.044Z,95436.45
2019-02-07T20:02:26.491Z,95439.96
2019-02-07T20:04:57.919Z,95442.59
2019-02-07T20:07:29.393Z,95444.27
2019-02-07T20:10:00.843Z,95445.11
2019-02-07T20:12:33.985Z,95446.20
2019-02-07T20:15:10.671Z,95450.52
2019-02-07T20:17:42.232Z,95450.52
2019-02-07T20:20:14.629Z,95449.52
2019-02-07T20:22:46.294Z,95453.23
2019-02-07T20:25:18.461Z,95461.30
2019-02-07T20:27:50.204Z,95455.00
2019-02-07T20:30:28.890Z,95461.22
2019-02-07T20:33:01.983Z,95462.18
2019-02-07T20:35:33.599Z,95464.56
2019-02-07T20:38:06.008Z,95465.78
2019-02-07T20:40:37.634Z,95465.52
2019-02-07T20:43:09.695Z,95467.94
2019-02-07T20:45:41.214Z,95466.49
2019-02-07T20:48:12.790Z,95471.61
2019-02-07T20:50:44.314Z,95465.40
2019-02-07T20:53:17.838Z,95471.09
2019-02-07T20:55:49.723Z,95476.89
2019-02-07T20:58:21.246Z,95479.81
2019-02-07T21:00:52.914Z,95489.72
2019-02-07T21:03:24.427Z,95490.33
2019-02-07T21:05:59.699Z,95498.41
2019-02-07T21:08:30.837Z,95499.45
2019-02-07T21:11:02.516Z,95496.36
2019-02-07T21:13:38.637Z,95495.81
2019-02-07T21:16:10.053Z,95499.13
2019-02-07T21:18:43.465Z,95497.90
2019-02-07T21:21:15.178Z,95500.31
2019-02-07T21:23:46.783Z,95500.70
2019-02-07T21:26:18.335Z,95504.41
2019-02-07T21:28:49.862Z,95503.50
2019-02-07T21:31:21.283Z,95508.65
2019-02-07T21:33:52.767Z,95517.02
2019-02-07T21:36:24.199Z,95525.56
2019-02-07T21:38:55.893Z,95528.78
2019-02-07T21:41:27.350Z,95536.89
2019-02-07T21:43:58.804Z,95539.19
2019-02-07T21:46:30.323Z,95542.70
2019-02-07T21:49:02.260Z,95541.87
2019-02-07T21:51:33.803Z,95539.19
2019-02-07T21:54:05.660Z,95547.77
2019-02-07T21:56:37.332Z,95556.30
2019-02-07T21:59:09.664Z,95557.52
2019-02-07T22:01:41.230Z,95557.25
2019-02-07T22:04:13.019Z,95562.28
2019-02-07T22:06:44.557Z,95568.17
2019-02-07T22:09:17.005Z,95568.27
2019-02-07T22:11:48.573Z,95578.64
2019-02-07T22:14:20.034Z,95583.06
2019-02-07T22:16:51.480Z,95592.13
2019-02-07T22:19:22.977Z,95591.95
2019-02-07T22:21:54.767Z,95594.16
2019-02-07T22:24:26.653Z,95603.91
2019-02-07T22:26:58.113Z,95611.64
2019-02-07T22:29:29.629Z,95614.11
2019-02-07T22:32:01.058Z,95617.97
2019-02-07T22:34:32.692Z,95629.64
2019-02-07T22:37:04.159Z,95637.26
2019-02-07T22:39:35.609Z,95636.81
2019-02-07T22:42:07.057Z,95646.89
2019-02-07T22:44:38.626Z,95651.20
2019-02-07T22:47:12.022Z,95652.90
2019-02-07T22:49:43.505Z,95655.89
2019-02-07T22:52:14.936Z,95656.63
2019-02-07T22:54:49.108Z,95657.46
2019-02-07T22:57:20.515Z,95655.84
2019-02-07T22:59:51.974Z,95655.48
2019-02-07T23:02:23.478Z,95663.38
2019-02-07T23:04:55.021Z,95671.53
2019-02-07T23:07:26.445Z,95670.24
2019-02-07T23:09:57.841Z,95675.09
2019-02-07T23:12:29.896Z,95675.18
2019-02-07T23:15:01.359Z,95678.80
2019-02-07T23:17:33.087Z,95680.59
2019-02-07T23:20:06.179Z,95677.52
2019-02-07T23:22:39.237Z,95681.52
2019-02-07T23:25:11.724Z,95686.42
2019-02-07T23:27:43.139Z,95686.30
2019-02-07T23:30:15.249Z,95686.47
2019-02-07T23:32:46.870Z,95697.06
2019-02-07T23:35:18.456Z,95702.20
2019-02-07T23:37:49.798Z,95691.67
2019-02-07T23:40:22.034Z,95700.89
2019-02-07T23:42:53.662Z,95699.59
2019-02-07T23:45:25.343Z,95701.82
2019-02-07T23:47:56.762Z,95701.98
2019-02-07T23:50:28.206Z,95709.55
2019-02-07T23:52:59.648Z,95712.48
2019-02-07T23:55:31.106Z,95716.42
2019-02-07T23:58:02.846Z,95713.94
